createdAt,value
2018-01-26T00:01:32.752Z,58.92
2018-01-26T00:04:03.801Z,49.90
2018-01-26T00:06:33.767Z,57.17
2018-01-26T00:09:03.436Z,57.78
2018-01-26T00:11:33.358Z,55.72
2018-01-26T00:14:03.396Z,59.42
2018-01-26T00:16:33.288Z,58.85
2018-01-26T00:19:03.232Z,54.00
2018-01-26T00:21:33.354Z,48.00
2018-01-26T00:24:03.205Z,50.00
2018-01-26T00:26:33.038Z,51.58
2018-01-26T00:29:02.962Z,55.60
2018-01-26T00:31:32.802Z,52.97
2018-01-26T00:34:02.665Z,53.53
2018-01-26T00:36:32.629Z,50.90
2018-01-26T00:39:02.597Z,60.15
2018-01-26T00:41:32.588Z,51.63
2018-01-26T00:44:03.027Z,55.12
2018-01-26T00:46:32.915Z,55.15
2018-01-26T00:49:02.862Z,57.62
2018-01-26T00:51:32.754Z,55.67
2018-01-26T00:54:02.639Z,48.30
2018-01-26T00:56:32.749Z,54.83
2018-01-26T00:59:02.671Z,58.13
2018-01-26T01:01:32.657Z,47.15
2018-01-26T01:04:02.902Z,54.08
2018-01-26T01:06:32.799Z,52.20
2018-01-26T01:09:02.731Z,49.97
2018-01-26T01:11:32.565Z,53.10
2018-01-26T01:14:02.372Z,51.58
2018-01-26T01:16:32.304Z,51.17
2018-01-26T01:19:02.304Z,49.38
2018-01-26T01:21:32.191Z,50.63
2018-01-26T01:24:02.088Z,49.55
2018-01-26T01:26:32.001Z,44.20
2018-01-26T01:29:01.865Z,47.03
2018-01-26T01:31:31.745Z,52.92
2018-01-26T01:34:01.716Z,48.87
2018-01-26T01:36:31.460Z,49.00
2018-01-26T01:39:01.370Z,52.83
2018-01-26T01:41:31.259Z,50.78
2018-01-26T01:44:01.241Z,60.80
2018-01-26T01:46:31.231Z,46.25
2018-01-26T01:49:12.281Z,50.30
2018-01-26T01:51:41.950Z,44.85
2018-01-26T01:54:11.852Z,50.88
2018-01-26T01:56:41.870Z,52.67
2018-01-26T01:59:11.770Z,49.22
2018-01-26T02:01:41.452Z,54.75
2018-01-26T02:04:11.698Z,55.33
2018-01-26T02:06:41.618Z,53.08
2018-01-26T02:09:11.489Z,53.38
2018-01-26T02:11:41.377Z,55.12
2018-01-26T02:14:11.223Z,52.95
2018-01-26T02:16:41.741Z,47.55
2018-01-26T02:19:11.613Z,49.20
2018-01-26T02:21:41.461Z,47.67
2018-01-26T02:24:11.349Z,53.87
2018-01-26T02:26:41.237Z,50.10
2018-01-26T02:29:11.072Z,52.75
2018-01-26T02:31:41.149Z,52.10
2018-01-26T02:34:11.819Z,55.90
2018-01-26T02:36:41.779Z,56.78
2018-01-26T02:39:11.817Z,51.72
2018-01-26T02:41:41.673Z,57.53
2018-01-26T02:44:11.643Z,55.17
2018-01-26T02:46:41.510Z,56.25
2018-01-26T02:49:10.795Z,51.78
2018-01-26T02:51:40.709Z,55.53
2018-01-26T02:54:10.809Z,59.50
2018-01-26T02:56:40.735Z,57.75
2018-01-26T02:59:10.896Z,54.50
2018-01-26T03:01:41.142Z,56.00
2018-01-26T03:04:11.183Z,50.33
2018-01-26T03:06:41.336Z,45.22
2018-01-26T03:09:11.447Z,55.42
2018-01-26T03:11:41.436Z,55.92
2018-01-26T03:14:11.438Z,54.22
2018-01-26T03:16:41.301Z,54.97
2018-01-26T03:19:11.181Z,53.30
2018-01-26T03:21:41.153Z,64.45
2018-01-26T03:24:10.883Z,62.28
2018-01-26T03:26:40.829Z,58.83
2018-01-26T03:29:10.781Z,58.95
2018-01-26T03:31:40.481Z,59.15
2018-01-26T03:34:10.378Z,52.80
2018-01-26T03:36:40.519Z,57.78
2018-01-26T03:39:10.423Z,59.63
2018-01-26T03:41:40.398Z,58.70
2018-01-26T03:44:12.325Z,59.35
2018-01-26T03:46:42.373Z,52.75
2018-01-26T03:49:12.249Z,49.63
2018-01-26T03:51:42.265Z,54.40
2018-01-26T03:54:12.392Z,49.97
2018-01-26T03:56:42.312Z,57.03
2018-01-26T03:59:12.732Z,48.90
2018-01-26T04:01:42.826Z,56.80
2018-01-26T04:07:45.413Z,55.15
2018-01-26T04:10:16.299Z,53.55
2018-01-26T04:12:46.311Z,52.15
2018-01-26T04:15:16.183Z,48.97
2018-01-26T04:17:46.164Z,55.90
2018-01-26T04:20:16.042Z,57.30
2018-01-26T04:22:46.738Z,51.95
2018-01-26T04:25:16.728Z,55.70
2018-01-26T04:27:46.615Z,57.42
2018-01-26T04:30:16.314Z,58.35
2018-01-26T04:32:46.326Z,53.55
2018-01-26T04:35:16.245Z,54.35
2018-01-26T04:37:46.142Z,52.65
2018-01-26T04:40:16.067Z,54.10
2018-01-26T04:42:46.030Z,52.25
2018-01-26T04:45:15.991Z,50.15
2018-01-26T04:47:46.056Z,52.62
2018-01-26T04:50:16.665Z,54.50
2018-01-26T04:52:46.627Z,53.10
2018-01-26T04:55:16.614Z,52.15
2018-01-26T04:57:46.502Z,52.03
2018-01-26T05:00:16.546Z,52.42
2018-01-26T05:02:46.582Z,61.40
2018-01-26T05:05:16.700Z,56.25
2018-01-26T05:07:46.614Z,49.67
2018-01-26T05:10:16.613Z,62.20
2018-01-26T05:12:46.588Z,57.95
2018-01-26T05:15:16.763Z,63.25
2018-01-26T05:17:47.026Z,53.47
2018-01-26T05:22:52.214Z,55.67
2018-01-26T05:25:25.622Z,50.90
2018-01-26T05:27:55.882Z,59.40
2018-01-26T05:30:25.899Z,64.90
2018-01-26T05:33:01.335Z,59.90
2018-01-26T05:35:35.737Z,56.63
2018-01-26T05:38:06.681Z,56.20
2018-01-26T05:40:37.453Z,53.72
2018-01-26T05:43:07.464Z,62.45
2018-01-26T05:45:38.327Z,58.50
2018-01-26T05:48:08.267Z,61.33
2018-01-26T05:50:38.264Z,57.72
2018-01-26T05:53:08.423Z,59.58
2018-01-26T05:55:39.082Z,53.85
2018-01-26T05:58:09.733Z,60.63
2018-01-26T06:00:39.714Z,61.08
2018-01-26T06:03:10.451Z,53.40
2018-01-26T06:05:40.626Z,54.92
2018-01-26T06:08:10.553Z,54.92
2018-01-26T06:10:40.611Z,57.70
2018-01-26T06:13:10.352Z,64.05
2018-01-26T06:15:41.172Z,60.80
2018-01-26T06:18:11.679Z,62.13
2018-01-26T06:20:41.654Z,54.65
2018-01-26T06:23:11.973Z,58.47
2018-01-26T06:25:41.761Z,53.55
2018-01-26T06:28:12.384Z,60.78
2018-01-26T06:30:42.569Z,57.88
2018-01-26T06:33:12.539Z,55.28
2018-01-26T06:35:42.649Z,54.47
2018-01-26T06:38:12.606Z,58.00
2018-01-26T06:40:42.578Z,57.33
2018-01-26T06:43:12.643Z,49.08
2018-01-26T06:45:43.155Z,48.83
2018-01-26T06:48:13.257Z,47.42
2018-01-26T06:50:43.112Z,49.63
2018-01-26T06:53:13.654Z,58.97
2018-01-26T06:55:43.867Z,55.42
2018-01-26T06:58:13.803Z,58.17
2018-01-26T07:00:43.644Z,60.45
2018-01-26T07:03:13.674Z,55.95
2018-01-26T07:05:44.379Z,59.85
2018-01-26T07:08:14.209Z,52.55
2018-01-26T07:10:44.051Z,47.42
2018-01-26T07:13:15.420Z,45.22
2018-01-26T07:15:45.436Z,59.60
2018-01-26T07:18:15.997Z,59.40
2018-01-26T07:20:49.828Z,58.58
2018-01-26T07:23:20.001Z,54.55
2018-01-26T07:25:49.873Z,55.35
2018-01-26T07:28:19.750Z,55.70
2018-01-26T07:30:49.856Z,52.83
2018-01-26T07:33:19.700Z,49.08
2018-01-26T07:35:49.757Z,53.78
2018-01-26T07:38:19.724Z,50.17
2018-01-26T07:40:49.689Z,50.65
2018-01-26T07:43:19.816Z,47.67
2018-01-26T07:45:50.840Z,51.15
2018-01-26T07:48:20.703Z,50.42
2018-01-26T07:50:50.528Z,56.33
2018-01-26T07:53:20.474Z,46.17
2018-01-26T07:55:50.355Z,46.42
2018-01-26T07:58:20.276Z,49.75
2018-01-26T08:00:50.224Z,35.47
2018-01-26T08:03:20.139Z,38.85
2018-01-26T08:05:50.077Z,46.00
2018-01-26T08:08:20.907Z,43.85
2018-01-26T08:10:52.001Z,47.85
2018-01-26T08:13:23.014Z,44.67
2018-01-26T08:15:53.966Z,44.15
2018-01-26T08:18:25.323Z,48.90
2018-01-26T08:20:55.794Z,48.78
2018-01-26T08:23:26.324Z,44.53
2018-01-26T08:25:56.831Z,44.15
2018-01-26T08:28:28.224Z,46.58
2018-01-26T08:30:59.862Z,42.22
2018-01-26T08:33:33.569Z,39.00
2018-01-26T08:36:03.653Z,37.45
2018-01-26T08:38:34.416Z,43.90
2018-01-26T08:41:05.837Z,42.67
2018-01-26T08:43:35.607Z,41.83
2018-01-26T08:46:06.153Z,45.05
2018-01-26T08:48:36.958Z,43.00
2018-01-26T08:51:06.836Z,40.88
2018-01-26T08:53:36.864Z,37.30
2018-01-26T08:56:06.707Z,37.92
2018-01-26T08:58:39.094Z,42.15
2018-01-26T09:01:09.018Z,39.70
2018-01-26T09:03:38.886Z,40.90
2018-01-26T09:06:09.227Z,37.58
2018-01-26T09:08:40.096Z,36.78
2018-01-26T09:11:09.994Z,37.45
2018-01-26T09:13:40.079Z,37.75
2018-01-26T09:16:10.150Z,41.90
2018-01-26T09:18:40.061Z,36.60
2018-01-26T09:21:10.018Z,34.70
2018-01-26T09:23:39.981Z,33.13
2018-01-26T09:26:09.890Z,32.35
2018-01-26T09:28:39.734Z,30.60
2018-01-26T09:31:10.042Z,30.70
2018-01-26T09:33:40.276Z,30.77
2018-01-26T09:36:10.434Z,38.70
2018-01-26T09:38:40.334Z,37.92
2018-01-26T09:41:10.204Z,42.47
2018-01-26T09:43:40.056Z,47.58
2018-01-26T09:46:09.927Z,44.65
2018-01-26T09:48:39.720Z,29.45
2018-01-26T09:51:09.923Z,33.58
2018-01-26T09:53:39.858Z,31.65
2018-01-26T09:56:10.387Z,36.38
2018-01-26T09:58:40.278Z,39.72
2018-01-26T10:01:10.423Z,32.20
2018-01-26T10:03:40.313Z,37.60
2018-01-26T10:06:10.290Z,37.45
2018-01-26T10:08:40.137Z,33.97
2018-01-26T10:11:10.007Z,33.67
2018-01-26T10:13:39.951Z,34.65
2018-01-26T10:16:09.618Z,32.95
2018-01-26T10:18:39.235Z,41.58
2018-01-26T10:21:09.321Z,39.67
2018-01-26T10:23:39.186Z,39.08
2018-01-26T10:26:09.194Z,38.22
2018-01-26T10:28:39.177Z,34.30
2018-01-26T10:31:09.361Z,38.20
2018-01-26T10:33:40.084Z,39.08
2018-01-26T10:36:10.031Z,35.00
2018-01-26T10:38:40.025Z,44.58
2018-01-26T10:41:10.010Z,38.60
2018-01-26T10:43:39.953Z,41.35
2018-01-26T10:46:09.992Z,41.85
2018-01-26T10:48:40.389Z,46.17
2018-01-26T10:51:10.423Z,40.12
2018-01-26T10:53:40.921Z,39.58
2018-01-26T10:56:10.842Z,42.05
2018-01-26T10:58:41.374Z,42.25
2018-01-26T11:01:10.978Z,31.85
2018-01-26T11:03:40.930Z,36.67
2018-01-26T11:06:10.939Z,42.65
2018-01-26T11:08:40.824Z,33.28
2018-01-26T11:11:10.717Z,36.60
2018-01-26T11:13:40.644Z,34.78
2018-01-26T11:16:10.512Z,32.75
2018-01-26T11:18:40.012Z,37.40
2018-01-26T11:21:09.921Z,36.40
2018-01-26T11:23:39.635Z,42.40
2018-01-26T11:26:10.281Z,33.42
2018-01-26T11:28:40.154Z,35.20
2018-01-26T11:31:10.120Z,41.45
2018-01-26T11:33:39.969Z,37.45
2018-01-26T11:36:09.834Z,34.15
2018-01-26T11:38:39.820Z,29.02
2018-01-26T11:41:09.691Z,37.83
2018-01-26T11:43:39.435Z,30.73
2018-01-26T11:46:13.362Z,35.30
2018-01-26T11:48:44.106Z,38.00
2018-01-26T11:51:14.241Z,57.72
2018-01-26T11:53:44.245Z,41.20
2018-01-26T11:56:14.078Z,45.12
2018-01-26T11:58:43.935Z,59.25
2018-01-26T12:01:13.827Z,51.00
2018-01-26T12:03:43.822Z,50.83
2018-01-26T12:06:13.716Z,64.37
2018-01-26T12:08:43.681Z,64.78
2018-01-26T12:11:13.635Z,72.87
2018-01-26T12:13:43.858Z,68.95
2018-01-26T12:16:18.110Z,68.72
2018-01-26T12:18:48.053Z,72.22
2018-01-26T12:21:17.957Z,72.90
2018-01-26T12:23:47.994Z,65.40
2018-01-26T12:26:17.917Z,52.67
2018-01-26T12:28:48.896Z,57.58
2018-01-26T12:31:18.623Z,54.80
2018-01-26T12:33:48.549Z,53.75
2018-01-26T12:36:18.574Z,58.35
2018-01-26T12:38:48.665Z,57.25
2018-01-26T12:41:18.615Z,63.38
2018-01-26T12:43:48.672Z,71.35
2018-01-26T12:46:18.615Z,62.03
2018-01-26T12:48:48.489Z,60.08
2018-01-26T12:51:18.386Z,51.05
2018-01-26T12:53:48.532Z,49.15
2018-01-26T12:56:18.533Z,47.65
2018-01-26T12:58:48.620Z,48.95
2018-01-26T13:01:18.514Z,43.60
2018-01-26T13:03:48.437Z,48.25
2018-01-26T13:06:18.197Z,46.37
2018-01-26T13:08:48.093Z,38.92
2018-01-26T13:11:18.219Z,43.90
2018-01-26T13:13:48.201Z,42.17
2018-01-26T13:16:18.128Z,42.35
2018-01-26T13:18:48.298Z,43.47
2018-01-26T13:21:18.713Z,48.75
2018-01-26T13:23:49.713Z,48.85
2018-01-26T13:26:19.620Z,55.75
2018-01-26T13:28:49.458Z,64.93
2018-01-26T13:31:19.313Z,56.13
2018-01-26T13:33:49.256Z,55.42
2018-01-26T13:36:19.282Z,52.67
2018-01-26T13:38:49.943Z,48.28
2018-01-26T13:41:19.825Z,64.18
2018-01-26T13:43:49.776Z,63.55
2018-01-26T13:46:19.801Z,73.75
2018-01-26T13:48:49.655Z,67.30
2018-01-26T13:51:19.539Z,56.42
2018-01-26T13:53:49.392Z,68.18
2018-01-26T13:56:19.216Z,57.67
2018-01-26T13:58:48.873Z,60.65
2018-01-26T14:01:18.739Z,58.72
2018-01-26T14:03:48.581Z,66.93
2018-01-26T14:06:18.393Z,51.00
2018-01-26T14:08:48.255Z,49.58
2018-01-26T14:11:19.218Z,57.60
2018-01-26T14:13:49.973Z,55.40
2018-01-26T14:16:21.222Z,60.28
2018-01-26T14:18:51.414Z,57.85
2018-01-26T14:21:22.090Z,30.55
2018-01-26T14:23:52.452Z,51.13
2018-01-26T14:26:22.459Z,65.20
2018-01-26T14:28:52.723Z,63.35
2018-01-26T14:31:22.496Z,60.03
2018-01-26T14:33:52.495Z,73.32
2018-01-26T14:36:22.649Z,65.95
2018-01-26T14:38:52.769Z,80.57
2018-01-26T14:41:23.732Z,75.65
2018-01-26T14:43:54.089Z,61.22
2018-01-26T14:46:24.184Z,64.18
2018-01-26T14:48:55.012Z,55.72
2018-01-26T14:51:25.650Z,65.40
2018-01-26T14:53:55.814Z,60.33
2018-01-26T14:56:26.989Z,60.70
2018-01-26T14:58:57.366Z,64.70
2018-01-26T15:01:27.807Z,65.18
2018-01-26T15:03:58.043Z,54.13
2018-01-26T15:06:28.104Z,64.28
2018-01-26T15:08:57.997Z,62.65
2018-01-26T15:11:27.874Z,67.05
2018-01-26T15:13:59.288Z,56.15
2018-01-26T15:16:30.908Z,59.88
2018-01-26T15:19:01.204Z,55.50
2018-01-26T15:21:31.439Z,56.95
2018-01-26T15:24:02.722Z,57.62
2018-01-26T15:26:33.114Z,68.05
2018-01-26T15:29:03.539Z,59.50
2018-01-26T15:31:33.739Z,67.00
2018-01-26T15:34:03.698Z,65.32
2018-01-26T15:36:33.673Z,68.03
2018-01-26T15:39:03.223Z,74.20
2018-01-26T15:41:34.068Z,72.40
2018-01-26T15:44:04.169Z,72.00
2018-01-26T15:46:33.808Z,66.12
2018-01-26T15:49:03.844Z,73.87
2018-01-26T15:51:33.817Z,77.10
2018-01-26T15:54:03.687Z,68.90
2018-01-26T15:56:33.583Z,73.25
2018-01-26T15:59:03.554Z,71.37
2018-01-26T16:01:33.507Z,75.53
2018-01-26T16:04:03.325Z,71.35
2018-01-26T16:06:33.128Z,81.35
2018-01-26T16:09:03.501Z,63.13
2018-01-26T16:11:33.231Z,68.40
2018-01-26T16:14:03.490Z,67.65
2018-01-26T16:16:33.624Z,75.78
2018-01-26T16:19:03.275Z,76.78
2018-01-26T16:21:33.200Z,57.62
2018-01-26T16:24:04.027Z,64.60
2018-01-26T16:26:34.095Z,57.15
2018-01-26T16:29:05.010Z,59.70
2018-01-26T16:31:34.985Z,63.40
2018-01-26T16:34:05.007Z,58.20
2018-01-26T16:36:35.154Z,61.10
2018-01-26T16:39:04.947Z,55.55
2018-01-26T16:41:34.955Z,57.78
2018-01-26T16:44:04.633Z,63.97
2018-01-26T16:46:34.455Z,62.22
2018-01-26T16:49:04.315Z,78.30
2018-01-26T16:51:34.134Z,76.32
2018-01-26T16:54:04.186Z,80.60
2018-01-26T16:56:34.207Z,74.07
2018-01-26T16:59:03.864Z,80.03
2018-01-26T17:01:33.687Z,65.80
2018-01-26T17:04:03.709Z,65.50
2018-01-26T17:06:34.403Z,69.97
2018-01-26T17:09:05.134Z,64.78
2018-01-26T17:11:35.329Z,60.03
2018-01-26T17:14:05.608Z,57.13
2018-01-26T17:16:36.008Z,54.88
2018-01-26T17:19:06.425Z,62.72
2018-01-26T17:21:36.634Z,58.47
2018-01-26T17:24:07.143Z,51.70
2018-01-26T17:26:37.744Z,54.05
2018-01-26T17:29:08.190Z,50.40
2018-01-26T17:31:38.181Z,53.08
2018-01-26T17:34:08.089Z,59.30
2018-01-26T17:36:38.065Z,63.38
2018-01-26T17:39:08.432Z,57.28
2018-01-26T17:41:38.262Z,56.20
2018-01-26T17:44:08.114Z,63.00
2018-01-26T17:46:37.949Z,57.55
2018-01-26T17:49:08.038Z,71.60
2018-01-26T17:51:37.596Z,68.85
2018-01-26T17:54:07.471Z,59.80
2018-01-26T17:56:37.310Z,55.08
2018-01-26T17:59:07.113Z,65.07
2018-01-26T18:01:37.368Z,67.72
2018-01-26T18:04:07.031Z,71.15
2018-01-26T18:06:36.833Z,70.03
2018-01-26T18:09:06.361Z,61.88
2018-01-26T18:11:36.187Z,53.08
2018-01-26T18:14:05.903Z,54.63
2018-01-26T18:16:35.647Z,78.03
2018-01-26T18:19:05.456Z,62.70
2018-01-26T18:21:35.397Z,58.80
2018-01-26T18:24:05.218Z,62.20
2018-01-26T18:26:35.075Z,58.20
2018-01-26T18:29:04.873Z,57.67
2018-01-26T18:31:34.693Z,63.15
2018-01-26T18:34:04.651Z,63.30
2018-01-26T18:36:34.325Z,62.25
2018-01-26T18:39:04.148Z,60.42
2018-01-26T18:41:34.133Z,60.85
2018-01-26T18:44:03.614Z,51.33
2018-01-26T18:46:33.709Z,62.33
2018-01-26T18:49:04.925Z,67.75
2018-01-26T18:51:34.797Z,55.25
2018-01-26T18:54:04.736Z,51.20
2018-01-26T18:56:34.558Z,61.65
2018-01-26T18:59:04.386Z,58.85
2018-01-26T19:01:34.192Z,53.75
2018-01-26T19:04:04.104Z,62.03
2018-01-26T19:06:34.194Z,68.62
2018-01-26T19:09:03.290Z,61.45
2018-01-26T19:11:33.102Z,57.97
2018-01-26T19:14:02.963Z,62.33
2018-01-26T19:16:32.536Z,55.63
2018-01-26T19:19:02.377Z,54.67
2018-01-26T19:21:32.261Z,59.72
2018-01-26T19:24:02.155Z,54.28
2018-01-26T19:26:31.934Z,62.28
2018-01-26T19:29:01.640Z,50.12
2018-01-26T19:31:31.278Z,61.03
2018-01-26T19:34:01.096Z,61.80
2018-01-26T19:36:30.990Z,57.95
2018-01-26T19:39:00.817Z,55.72
2018-01-26T19:41:30.410Z,55.25
2018-01-26T19:44:00.476Z,51.78
2018-01-26T19:46:30.297Z,48.78
2018-01-26T19:49:00.139Z,54.28
2018-01-26T19:51:29.961Z,55.25
2018-01-26T19:53:59.989Z,38.45
2018-01-26T19:56:29.521Z,55.10
2018-01-26T19:58:59.339Z,62.20
2018-01-26T20:01:29.157Z,50.80
2018-01-26T20:04:04.849Z,53.85
2018-01-26T20:06:51.128Z,54.55
2018-01-26T20:09:26.651Z,52.60
2018-01-26T20:12:07.911Z,49.13
2018-01-26T20:14:38.145Z,51.30
2018-01-26T20:17:07.627Z,63.45
2018-01-26T20:19:37.758Z,58.40
2018-01-26T20:22:07.564Z,60.03
2018-01-26T20:24:37.464Z,62.75
2018-01-26T20:27:18.845Z,65.18
2018-01-26T20:29:50.140Z,59.47
2018-01-26T20:32:19.439Z,58.08
2018-01-26T20:34:49.327Z,62.67
2018-01-26T20:37:19.133Z,77.28
2018-01-26T20:39:48.952Z,63.85
2018-01-26T20:42:18.589Z,69.35
2018-01-26T20:44:48.361Z,60.58
2018-01-26T20:47:18.166Z,67.80
2018-01-26T20:49:48.029Z,61.58
2018-01-26T20:52:17.824Z,63.40
2018-01-26T20:54:47.648Z,46.75
2018-01-26T20:57:17.476Z,55.92
2018-01-26T20:59:47.287Z,51.30
2018-01-26T21:02:16.908Z,36.10
2018-01-26T21:04:46.719Z,59.40
2018-01-26T21:07:16.607Z,48.63
2018-01-26T21:09:46.422Z,66.55
2018-01-26T21:12:16.249Z,52.53
2018-01-26T21:14:46.057Z,42.72
2018-01-26T21:17:15.881Z,53.03
2018-01-26T21:19:45.706Z,56.97
2018-01-26T21:22:15.922Z,55.72
2018-01-26T21:24:45.840Z,56.72
2018-01-26T21:27:15.986Z,55.97
2018-01-26T21:29:45.840Z,59.45
2018-01-26T21:32:15.765Z,54.00
2018-01-26T21:34:45.907Z,49.63
2018-01-26T21:37:15.902Z,61.20
2018-01-26T21:39:47.557Z,61.60
2018-01-26T21:42:17.642Z,61.60
2018-01-26T21:44:47.320Z,70.32
2018-01-26T21:47:17.153Z,69.80
2018-01-26T21:49:46.997Z,60.08
2018-01-26T21:52:16.894Z,65.68
2018-01-26T21:54:46.848Z,62.62
2018-01-26T21:57:16.720Z,52.85
2018-01-26T21:59:46.689Z,45.67
2018-01-26T22:02:16.351Z,48.30
2018-01-26T22:04:51.652Z,45.90
2018-01-26T22:07:27.250Z,54.50
2018-01-26T22:09:57.143Z,48.67
2018-01-26T22:12:27.252Z,41.80
2018-01-26T22:14:57.167Z,45.55
2018-01-26T22:17:26.964Z,42.13
2018-01-26T22:19:56.848Z,50.10
2018-01-26T22:22:26.715Z,41.28
2018-01-26T22:24:56.083Z,43.03
2018-01-26T22:27:25.965Z,41.13
2018-01-26T22:29:55.826Z,47.22
2018-01-26T22:32:26.030Z,36.35
2018-01-26T22:34:56.137Z,37.47
2018-01-26T22:37:26.085Z,42.00
2018-01-26T22:39:56.026Z,48.95
2018-01-26T22:42:26.078Z,50.42
2018-01-26T22:44:56.018Z,52.67
2018-01-26T22:47:26.144Z,47.42
2018-01-26T22:49:55.466Z,55.50
2018-01-26T22:52:25.347Z,46.35
2018-01-26T22:54:55.976Z,50.88
2018-01-26T22:57:25.896Z,49.50
2018-01-26T22:59:55.790Z,39.47
2018-01-26T23:02:25.869Z,43.25
2018-01-26T23:04:55.605Z,45.35
2018-01-26T23:07:25.477Z,43.83
2018-01-26T23:09:55.116Z,38.63
2018-01-26T23:12:25.006Z,45.40
2018-01-26T23:14:55.485Z,37.28
2018-01-26T23:17:25.406Z,41.33
2018-01-26T23:19:55.302Z,36.67
2018-01-26T23:22:25.236Z,41.63
2018-01-26T23:24:55.127Z,40.35
2018-01-26T23:27:25.052Z,36.05
2018-01-26T23:29:54.633Z,35.53
2018-01-26T23:32:24.593Z,38.75
2018-01-26T23:34:55.115Z,36.35
2018-01-26T23:37:25.090Z,37.95
2018-01-26T23:39:55.658Z,35.67
2018-01-26T23:42:25.670Z,31.92
2018-01-26T23:44:55.830Z,32.50
2018-01-26T23:47:25.795Z,40.38
2018-01-26T23:49:55.956Z,43.25
2018-01-26T23:52:25.824Z,38.08
2018-01-26T23:54:55.808Z,40.90
2018-01-26T23:57:25.755Z,40.90
2018-01-26T23:59:55.648Z,42.62
